Punta Gorda Airport

Date: 2024-06-11 10:04:00Z

Type: SPECI

Weather: Thunderstorms

Winds: Winds Calm

Visibility: 4

Ceiling (AGL FT): Clouds FEW at 3000, BROKEN at 7500, OVERCAST at 11000

RAW METAR: KPGD 111004Z 00000KT 4SM TSRA BR FEW030 BKN075 OVC110 26/24 A2988 RMK AO2 LTG DSNT NW TSB00 P0004 T02560239

project-image